sensor_id;sensor_type;location;lat;lon;timestamp;P1;durP1;ratioP1;P2;durP2;ratioP2
40931;SDS011;36257;46.052;12.540;2022-11-13T00:01:09;2.17;;;2.03;;
40931;SDS011;36257;46.052;12.540;2022-11-13T00:03:39;3.13;;;2.30;;
40931;SDS011;36257;46.052;12.540;2022-11-13T00:06:05;3.10;;;1.95;;
40931;SDS011;36257;46.052;12.540;2022-11-13T00:08:31;2.92;;;2.33;;
40931;SDS011;36257;46.052;12.540;2022-11-13T00:11:04;3.45;;;2.45;;
40931;SDS011;36257;46.052;12.540;2022-11-13T00:13:30;2.65;;;2.45;;
40931;SDS011;36257;46.052;12.540;2022-11-13T00:16:04;2.90;;;2.70;;
40931;SDS011;36257;46.052;12.540;2022-11-13T00:18:33;2.25;;;2.15;;
40931;SDS011;36257;46.052;12.540;2022-11-13T00:21:06;2.45;;;2.35;;
40931;SDS011;36257;46.052;12.540;2022-11-13T00:23:37;2.78;;;2.35;;
40931;SDS011;36257;46.052;12.540;2022-11-13T00:26:07;2.03;;;1.80;;
40931;SDS011;36257;46.052;12.540;2022-11-13T00:28:35;2.08;;;1.98;;
40931;SDS011;36257;46.052;12.540;2022-11-13T00:31:01;2.47;;;2.28;;
40931;SDS011;36257;46.052;12.540;2022-11-13T00:33:28;1.80;;;1.70;;
40931;SDS011;36257;46.052;12.540;2022-11-13T00:36:00;4.70;;;1.88;;
40931;SDS011;36257;46.052;12.540;2022-11-13T00:38:30;3.20;;;2.00;;
40931;SDS011;36257;46.052;12.540;2022-11-13T00:40:55;3.25;;;2.30;;
40931;SDS011;36257;46.052;12.540;2022-11-13T00:43:21;2.42;;;2.22;;
40931;SDS011;36257;46.052;12.540;2022-11-13T00:45:47;2.60;;;2.40;;
40931;SDS011;36257;46.052;12.540;2022-11-13T00:48:12;2.10;;;2.00;;
40931;SDS011;36257;46.052;12.540;2022-11-13T00:50:38;2.45;;;2.25;;
40931;SDS011;36257;46.052;12.540;2022-11-13T00:53:03;2.28;;;2.08;;
40931;SDS011;36257;46.052;12.540;2022-11-13T00:55:29;2.10;;;2.00;;
40931;SDS011;36257;46.052;12.540;2022-11-13T00:57:55;2.30;;;2.10;;
40931;SDS011;36257;46.052;12.540;2022-11-13T01:00:20;2.45;;;2.25;;
40931;SDS011;36257;46.052;12.540;2022-11-13T01:02:46;2.83;;;2.60;;
40931;SDS011;36257;46.052;12.540;2022-11-13T01:05:12;2.90;;;2.70;;
40931;SDS011;36257;46.052;12.540;2022-11-13T01:07:37;2.40;;;2.20;;
40931;SDS011;36257;46.052;12.540;2022-11-13T01:10:03;2.70;;;2.50;;
40931;SDS011;36257;46.052;12.540;2022-11-13T01:12:29;2.67;;;2.47;;
40931;SDS011;36257;46.052;12.540;2022-11-13T01:14:55;2.80;;;2.58;;
40931;SDS011;36257;46.052;12.540;2022-11-13T01:17:21;2.90;;;2.63;;
40931;SDS011;36257;46.052;12.540;2022-11-13T01:19:47;2.45;;;2.05;;
40931;SDS011;36257;46.052;12.540;2022-11-13T01:22:12;2.72;;;2.50;;
40931;SDS011;36257;46.052;12.540;2022-11-13T01:24:38;2.70;;;2.50;;
40931;SDS011;36257;46.052;12.540;2022-11-13T01:27:04;2.80;;;2.60;;
40931;SDS011;36257;46.052;12.540;2022-11-13T01:29:29;2.80;;;2.33;;
40931;SDS011;36257;46.052;12.540;2022-11-13T01:31:55;2.58;;;2.38;;
40931;SDS011;36257;46.052;12.540;2022-11-13T01:34:21;2.40;;;2.20;;
40931;SDS011;36257;46.052;12.540;2022-11-13T01:36:47;2.40;;;2.20;;
40931;SDS011;36257;46.052;12.540;2022-11-13T01:39:12;2.40;;;2.20;;
40931;SDS011;36257;46.052;12.540;2022-11-13T01:41:38;2.50;;;2.22;;
40931;SDS011;36257;46.052;12.540;2022-11-13T01:44:05;2.53;;;2.33;;
40931;SDS011;36257;46.052;12.540;2022-11-13T01:46:39;3.00;;;2.70;;
40931;SDS011;36257;46.052;12.540;2022-11-13T01:51:44;2.70;;;2.50;;
40931;SDS011;36257;46.052;12.540;2022-11-13T01:54:21;3.35;;;2.38;;
40931;SDS011;36257;46.052;12.540;2022-11-13T01:56:50;3.65;;;2.88;;
40931;SDS011;36257;46.052;12.540;2022-11-13T01:59:18;2.65;;;2.38;;
40931;SDS011;36257;46.052;12.540;2022-11-13T02:01:47;2.72;;;2.53;;
40931;SDS011;36257;46.052;12.540;2022-11-13T02:04:13;3.22;;;2.42;;
40931;SDS011;36257;46.052;12.540;2022-11-13T02:06:43;5.75;;;2.42;;
40931;SDS011;36257;46.052;12.540;2022-11-13T02:09:12;2.70;;;2.50;;
40931;SDS011;36257;46.052;12.540;2022-11-13T02:14:05;3.58;;;2.50;;
40931;SDS011;36257;46.052;12.540;2022-11-13T02:16:33;2.80;;;2.60;;
40931;SDS011;36257;46.052;12.540;2022-11-13T02:19:02;2.70;;;2.50;;
40931;SDS011;36257;46.052;12.540;2022-11-13T02:21:37;2.35;;;2.20;;
40931;SDS011;36257;46.052;12.540;2022-11-13T02:26:55;7.10;;;5.35;;
40931;SDS011;36257;46.052;12.540;2022-11-13T02:29:24;12.90;;;8.50;;
40931;SDS011;36257;46.052;12.540;2022-11-13T02:31:50;14.27;;;8.30;;
40931;SDS011;36257;46.052;12.540;2022-11-13T02:34:15;8.20;;;5.55;;
40931;SDS011;36257;46.052;12.540;2022-11-13T02:36:41;3.60;;;3.30;;
40931;SDS011;36257;46.052;12.540;2022-11-13T02:39:08;4.35;;;3.40;;
40931;SDS011;36257;46.052;12.540;2022-11-13T02:41:35;3.75;;;2.65;;
40931;SDS011;36257;46.052;12.540;2022-11-13T02:44:02;2.88;;;2.35;;
40931;SDS011;36257;46.052;12.540;2022-11-13T02:46:29;3.78;;;3.47;;
40931;SDS011;36257;46.052;12.540;2022-11-13T02:48:55;4.70;;;4.18;;
40931;SDS011;36257;46.052;12.540;2022-11-13T02:51:20;8.15;;;5.22;;
40931;SDS011;36257;46.052;12.540;2022-11-13T02:53:46;4.20;;;3.80;;
40931;SDS011;36257;46.052;12.540;2022-11-13T02:56:12;7.68;;;5.53;;
40931;SDS011;36257;46.052;12.540;2022-11-13T02:58:38;5.95;;;4.95;;
40931;SDS011;36257;46.052;12.540;2022-11-13T03:01:03;5.13;;;3.33;;
40931;SDS011;36257;46.052;12.540;2022-11-13T03:03:29;3.53;;;3.10;;
40931;SDS011;36257;46.052;12.540;2022-11-13T03:05:55;4.85;;;3.30;;
40931;SDS011;36257;46.052;12.540;2022-11-13T03:08:20;3.13;;;2.83;;
40931;SDS011;36257;46.052;12.540;2022-11-13T03:10:48;2.92;;;2.72;;
40931;SDS011;36257;46.052;12.540;2022-11-13T03:13:13;3.80;;;3.50;;
40931;SDS011;36257;46.052;12.540;2022-11-13T03:18:07;3.80;;;2.97;;
40931;SDS011;36257;46.052;12.540;2022-11-13T03:20:35;2.65;;;2.45;;
40931;SDS011;36257;46.052;12.540;2022-11-13T03:23:01;3.35;;;2.42;;
40931;SDS011;36257;46.052;12.540;2022-11-13T03:25:28;3.58;;;2.47;;
40931;SDS011;36257;46.052;12.540;2022-11-13T03:27:53;3.10;;;2.70;;
40931;SDS011;36257;46.052;12.540;2022-11-13T03:30:19;2.72;;;2.50;;
40931;SDS011;36257;46.052;12.540;2022-11-13T03:32:45;2.13;;;2.03;;
40931;SDS011;36257;46.052;12.540;2022-11-13T03:35:11;2.65;;;2.45;;
40931;SDS011;36257;46.052;12.540;2022-11-13T03:37:36;2.75;;;2.45;;
40931;SDS011;36257;46.052;12.540;2022-11-13T03:40:02;2.90;;;2.38;;
40931;SDS011;36257;46.052;12.540;2022-11-13T03:42:28;2.92;;;2.50;;
40931;SDS011;36257;46.052;12.540;2022-11-13T03:44:53;3.28;;;2.70;;
40931;SDS011;36257;46.052;12.540;2022-11-13T03:47:19;2.60;;;2.40;;
40931;SDS011;36257;46.052;12.540;2022-11-13T03:49:44;2.60;;;2.38;;
40931;SDS011;36257;46.052;12.540;2022-11-13T03:52:10;3.17;;;2.88;;
40931;SDS011;36257;46.052;12.540;2022-11-13T03:54:36;2.72;;;2.53;;
40931;SDS011;36257;46.052;12.540;2022-11-13T03:57:01;3.28;;;2.97;;
40931;SDS011;36257;46.052;12.540;2022-11-13T03:59:27;2.90;;;2.60;;
40931;SDS011;36257;46.052;12.540;2022-11-13T04:01:52;3.28;;;2.80;;
40931;SDS011;36257;46.052;12.540;2022-11-13T04:04:18;3.53;;;3.08;;
40931;SDS011;36257;46.052;12.540;2022-11-13T04:06:44;2.80;;;2.50;;
40931;SDS011;36257;46.052;12.540;2022-11-13T04:09:09;3.30;;;3.00;;
40931;SDS011;36257;46.052;12.540;2022-11-13T04:11:35;2.83;;;2.63;;
40931;SDS011;36257;46.052;12.540;2022-11-13T04:14:01;3.13;;;2.67;;
40931;SDS011;36257;46.052;12.540;2022-11-13T04:16:26;2.55;;;2.35;;
40931;SDS011;36257;46.052;12.540;2022-11-13T04:18:52;2.70;;;2.50;;
40931;SDS011;36257;46.052;12.540;2022-11-13T04:21:18;2.85;;;2.58;;
40931;SDS011;36257;46.052;12.540;2022-11-13T04:23:43;3.60;;;3.28;;
40931;SDS011;36257;46.052;12.540;2022-11-13T04:26:09;2.95;;;2.63;;
40931;SDS011;36257;46.052;12.540;2022-11-13T04:28:35;2.65;;;2.00;;
40931;SDS011;36257;46.052;12.540;2022-11-13T04:31:00;2.20;;;2.10;;
40931;SDS011;36257;46.052;12.540;2022-11-13T04:33:26;2.45;;;2.35;;
40931;SDS011;36257;46.052;12.540;2022-11-13T04:35:51;3.30;;;2.58;;
40931;SDS011;36257;46.052;12.540;2022-11-13T04:38:17;2.47;;;2.28;;
40931;SDS011;36257;46.052;12.540;2022-11-13T04:40:43;2.65;;;2.45;;
40931;SDS011;36257;46.052;12.540;2022-11-13T04:43:08;3.00;;;2.70;;
40931;SDS011;36257;46.052;12.540;2022-11-13T04:45:34;2.97;;;2.25;;
40931;SDS011;36257;46.052;12.540;2022-11-13T04:48:00;3.22;;;2.97;;
40931;SDS011;36257;46.052;12.540;2022-11-13T04:50:26;2.97;;;2.67;;
40931;SDS011;36257;46.052;12.540;2022-11-13T04:52:52;2.42;;;2.22;;
40931;SDS011;36257;46.052;12.540;2022-11-13T04:55:17;3.00;;;2.72;;
40931;SDS011;36257;46.052;12.540;2022-11-13T04:57:43;4.20;;;3.10;;
40931;SDS011;36257;46.052;12.540;2022-11-13T05:00:09;2.70;;;2.50;;
40931;SDS011;36257;46.052;12.540;2022-11-13T05:02:35;2.85;;;2.65;;
40931;SDS011;36257;46.052;12.540;2022-11-13T05:05:00;2.55;;;2.35;;
40931;SDS011;36257;46.052;12.540;2022-11-13T05:07:26;2.90;;;2.70;;
40931;SDS011;36257;46.052;12.540;2022-11-13T05:09:52;3.80;;;2.85;;
40931;SDS011;36257;46.052;12.540;2022-11-13T05:12:18;3.20;;;2.90;;
40931;SDS011;36257;46.052;12.540;2022-11-13T05:14:44;3.35;;;3.05;;
40931;SDS011;36257;46.052;12.540;2022-11-13T05:17:10;3.83;;;2.83;;
40931;SDS011;36257;46.052;12.540;2022-11-13T05:19:37;5.28;;;3.85;;
40931;SDS011;36257;46.052;12.540;2022-11-13T05:22:03;3.08;;;2.80;;
40931;SDS011;36257;46.052;12.540;2022-11-13T05:24:29;2.90;;;2.70;;
40931;SDS011;36257;46.052;12.540;2022-11-13T05:26:56;2.45;;;2.35;;
40931;SDS011;36257;46.052;12.540;2022-11-13T05:29:22;2.80;;;2.60;;
40931;SDS011;36257;46.052;12.540;2022-11-13T05:31:48;5.20;;;3.08;;
40931;SDS011;36257;46.052;12.540;2022-11-13T05:34:13;2.78;;;2.53;;
40931;SDS011;36257;46.052;12.540;2022-11-13T05:36:39;3.55;;;3.25;;
40931;SDS011;36257;46.052;12.540;2022-11-13T05:39:05;3.67;;;3.05;;
40931;SDS011;36257;46.052;12.540;2022-11-13T05:41:31;4.00;;;2.92;;
40931;SDS011;36257;46.052;12.540;2022-11-13T05:43:57;3.38;;;2.97;;
40931;SDS011;36257;46.052;12.540;2022-11-13T05:46:24;3.35;;;3.03;;
40931;SDS011;36257;46.052;12.540;2022-11-13T05:48:52;4.05;;;2.60;;
40931;SDS011;36257;46.052;12.540;2022-11-13T05:51:21;4.13;;;2.85;;
40931;SDS011;36257;46.052;12.540;2022-11-13T05:53:48;2.40;;;2.20;;
40931;SDS011;36257;46.052;12.540;2022-11-13T05:56:33;3.20;;;3.00;;
40931;SDS011;36257;46.052;12.540;2022-11-13T05:59:00;3.08;;;2.75;;
40931;SDS011;36257;46.052;12.540;2022-11-13T06:01:28;2.60;;;2.40;;
40931;SDS011;36257;46.052;12.540;2022-11-13T06:03:56;4.18;;;3.88;;
40931;SDS011;36257;46.052;12.540;2022-11-13T06:06:22;5.03;;;4.53;;
40931;SDS011;36257;46.052;12.540;2022-11-13T06:08:49;5.07;;;3.42;;
40931;SDS011;36257;46.052;12.540;2022-11-13T06:11:17;2.88;;;2.67;;
40931;SDS011;36257;46.052;12.540;2022-11-13T06:13:45;2.83;;;2.63;;
40931;SDS011;36257;46.052;12.540;2022-11-13T06:16:12;3.92;;;3.63;;
40931;SDS011;36257;46.052;12.540;2022-11-13T06:18:40;3.70;;;3.13;;
40931;SDS011;36257;46.052;12.540;2022-11-13T06:21:07;5.60;;;4.35;;
40931;SDS011;36257;46.052;12.540;2022-11-13T06:23:35;6.18;;;4.82;;
40931;SDS011;36257;46.052;12.540;2022-11-13T06:26:06;9.05;;;6.32;;
40931;SDS011;36257;46.052;12.540;2022-11-13T06:28:34;8.80;;;6.13;;
40931;SDS011;36257;46.052;12.540;2022-11-13T06:31:07;5.18;;;4.03;;
40931;SDS011;36257;46.052;12.540;2022-11-13T06:33:56;5.53;;;2.97;;
40931;SDS011;36257;46.052;12.540;2022-11-13T06:36:26;6.18;;;4.82;;
40931;SDS011;36257;46.052;12.540;2022-11-13T06:38:53;5.30;;;4.60;;
40931;SDS011;36257;46.052;12.540;2022-11-13T06:41:20;6.10;;;5.32;;
40931;SDS011;36257;46.052;12.540;2022-11-13T06:43:48;12.70;;;6.28;;
40931;SDS011;36257;46.052;12.540;2022-11-13T06:46:17;19.23;;;12.07;;
40931;SDS011;36257;46.052;12.540;2022-11-13T06:48:44;25.58;;;14.80;;
40931;SDS011;36257;46.052;12.540;2022-11-13T06:51:15;12.75;;;8.90;;
40931;SDS011;36257;46.052;12.540;2022-11-13T06:56:14;5.93;;;5.00;;
40931;SDS011;36257;46.052;12.540;2022-11-13T06:58:41;5.90;;;4.75;;
40931;SDS011;36257;46.052;12.540;2022-11-13T07:01:21;5.80;;;5.20;;
40931;SDS011;36257;46.052;12.540;2022-11-13T07:03:48;6.75;;;4.57;;
40931;SDS011;36257;46.052;12.540;2022-11-13T07:06:15;5.30;;;4.20;;
40931;SDS011;36257;46.052;12.540;2022-11-13T07:08:44;4.68;;;4.28;;
40931;SDS011;36257;46.052;12.540;2022-11-13T07:11:11;3.70;;;3.38;;
40931;SDS011;36257;46.052;12.540;2022-11-13T07:13:41;5.50;;;3.70;;
40931;SDS011;36257;46.052;12.540;2022-11-13T07:16:08;5.10;;;4.32;;
40931;SDS011;36257;46.052;12.540;2022-11-13T07:18:35;4.88;;;4.28;;
40931;SDS011;36257;46.052;12.540;2022-11-13T07:21:08;4.10;;;3.72;;
40931;SDS011;36257;46.052;12.540;2022-11-13T07:23:36;4.88;;;3.88;;
40931;SDS011;36257;46.052;12.540;2022-11-13T07:26:06;6.80;;;4.45;;
40931;SDS011;36257;46.052;12.540;2022-11-13T07:28:33;7.10;;;4.32;;
40931;SDS011;36257;46.052;12.540;2022-11-13T07:30:59;5.13;;;3.47;;
40931;SDS011;36257;46.052;12.540;2022-11-13T07:33:25;7.95;;;4.60;;
40931;SDS011;36257;46.052;12.540;2022-11-13T07:35:57;5.07;;;4.22;;
40931;SDS011;36257;46.052;12.540;2022-11-13T07:38:23;5.47;;;4.00;;
40931;SDS011;36257;46.052;12.540;2022-11-13T07:40:49;7.00;;;4.95;;
40931;SDS011;36257;46.052;12.540;2022-11-13T07:43:15;5.00;;;4.30;;
40931;SDS011;36257;46.052;12.540;2022-11-13T07:45:41;7.10;;;4.68;;
40931;SDS011;36257;46.052;12.540;2022-11-13T07:48:08;7.80;;;5.38;;
40931;SDS011;36257;46.052;12.540;2022-11-13T07:50:35;5.95;;;4.45;;
40931;SDS011;36257;46.052;12.540;2022-11-13T07:53:02;9.93;;;5.22;;
40931;SDS011;36257;46.052;12.540;2022-11-13T07:55:30;6.32;;;4.53;;
40931;SDS011;36257;46.052;12.540;2022-11-13T07:57:57;6.05;;;4.78;;
40931;SDS011;36257;46.052;12.540;2022-11-13T08:00:24;5.05;;;4.05;;
40931;SDS011;36257;46.052;12.540;2022-11-13T08:02:50;4.97;;;3.63;;
40931;SDS011;36257;46.052;12.540;2022-11-13T08:05:16;4.78;;;3.67;;
40931;SDS011;36257;46.052;12.540;2022-11-13T08:07:45;6.47;;;3.30;;
40931;SDS011;36257;46.052;12.540;2022-11-13T08:10:12;6.60;;;3.33;;
40931;SDS011;36257;46.052;12.540;2022-11-13T08:12:38;4.25;;;2.90;;
40931;SDS011;36257;46.052;12.540;2022-11-13T08:15:04;3.97;;;2.97;;
40931;SDS011;36257;46.052;12.540;2022-11-13T08:17:30;5.53;;;3.58;;
40931;SDS011;36257;46.052;12.540;2022-11-13T08:19:55;5.10;;;2.97;;
40931;SDS011;36257;46.052;12.540;2022-11-13T08:22:21;4.60;;;3.33;;
40931;SDS011;36257;46.052;12.540;2022-11-13T08:24:47;4.07;;;3.55;;
40931;SDS011;36257;46.052;12.540;2022-11-13T08:27:12;3.90;;;2.90;;
40931;SDS011;36257;46.052;12.540;2022-11-13T08:29:38;4.68;;;3.00;;
40931;SDS011;36257;46.052;12.540;2022-11-13T08:32:03;4.28;;;3.05;;
40931;SDS011;36257;46.052;12.540;2022-11-13T08:34:29;3.95;;;3.55;;
40931;SDS011;36257;46.052;12.540;2022-11-13T08:36:55;5.10;;;3.47;;
40931;SDS011;36257;46.052;12.540;2022-11-13T08:39:20;3.90;;;3.45;;
40931;SDS011;36257;46.052;12.540;2022-11-13T08:41:46;6.45;;;3.50;;
40931;SDS011;36257;46.052;12.540;2022-11-13T08:44:11;6.07;;;4.20;;
40931;SDS011;36257;46.052;12.540;2022-11-13T08:46:38;5.28;;;3.67;;
40931;SDS011;36257;46.052;12.540;2022-11-13T08:49:04;3.22;;;2.90;;
40931;SDS011;36257;46.052;12.540;2022-11-13T08:51:30;5.82;;;3.30;;
40931;SDS011;36257;46.052;12.540;2022-11-13T08:53:55;6.18;;;4.15;;
40931;SDS011;36257;46.052;12.540;2022-11-13T08:56:21;5.35;;;3.35;;
40931;SDS011;36257;46.052;12.540;2022-11-13T08:58:47;5.32;;;3.83;;
40931;SDS011;36257;46.052;12.540;2022-11-13T09:01:12;5.38;;;3.35;;
40931;SDS011;36257;46.052;12.540;2022-11-13T09:03:38;4.57;;;3.40;;
40931;SDS011;36257;46.052;12.540;2022-11-13T09:06:07;3.67;;;3.38;;
40931;SDS011;36257;46.052;12.540;2022-11-13T09:08:33;4.20;;;3.38;;
40931;SDS011;36257;46.052;12.540;2022-11-13T09:11:05;3.88;;;3.42;;
40931;SDS011;36257;46.052;12.540;2022-11-13T09:13:31;4.20;;;3.33;;
40931;SDS011;36257;46.052;12.540;2022-11-13T09:15:58;5.07;;;4.20;;
40931;SDS011;36257;46.052;12.540;2022-11-13T09:18:24;8.00;;;4.20;;
40931;SDS011;36257;46.052;12.540;2022-11-13T09:20:50;5.38;;;3.88;;
40931;SDS011;36257;46.052;12.540;2022-11-13T09:23:16;6.07;;;3.65;;
40931;SDS011;36257;46.052;12.540;2022-11-13T09:25:41;4.20;;;3.90;;
40931;SDS011;36257;46.052;12.540;2022-11-13T09:28:08;5.00;;;3.97;;
40931;SDS011;36257;46.052;12.540;2022-11-13T09:30:36;5.57;;;3.60;;
40931;SDS011;36257;46.052;12.540;2022-11-13T09:33:03;5.80;;;3.50;;
40931;SDS011;36257;46.052;12.540;2022-11-13T09:35:29;4.97;;;3.80;;
40931;SDS011;36257;46.052;12.540;2022-11-13T09:38:03;5.00;;;4.03;;
40931;SDS011;36257;46.052;12.540;2022-11-13T09:40:32;5.78;;;3.88;;
40931;SDS011;36257;46.052;12.540;2022-11-13T09:43:03;5.13;;;3.90;;
40931;SDS011;36257;46.052;12.540;2022-11-13T09:45:31;6.18;;;4.38;;
40931;SDS011;36257;46.052;12.540;2022-11-13T09:48:03;5.90;;;3.67;;
40931;SDS011;36257;46.052;12.540;2022-11-13T09:50:53;8.73;;;4.13;;
40931;SDS011;36257;46.052;12.540;2022-11-13T09:58:55;8.57;;;3.65;;
40931;SDS011;36257;46.052;12.540;2022-11-13T10:01:43;6.50;;;4.32;;
40931;SDS011;36257;46.052;12.540;2022-11-13T10:04:24;8.60;;;4.53;;
40931;SDS011;36257;46.052;12.540;2022-11-13T10:12:16;3.72;;;3.33;;
40931;SDS011;36257;46.052;12.540;2022-11-13T10:14:43;4.25;;;3.85;;
40931;SDS011;36257;46.052;12.540;2022-11-13T10:17:58;4.63;;;3.65;;
40931;SDS011;36257;46.052;12.540;2022-11-13T10:20:11;5.63;;;4.40;;
40931;SDS011;36257;46.052;12.540;2022-11-13T10:22:49;6.80;;;3.97;;
40931;SDS011;36257;46.052;12.540;2022-11-13T10:25:19;4.65;;;4.00;;
40931;SDS011;36257;46.052;12.540;2022-11-13T10:27:57;4.18;;;3.50;;
40931;SDS011;36257;46.052;12.540;2022-11-13T10:30:27;6.85;;;4.25;;
40931;SDS011;36257;46.052;12.540;2022-11-13T10:32:53;5.95;;;4.65;;
40931;SDS011;36257;46.052;12.540;2022-11-13T10:38:24;5.15;;;4.32;;
40931;SDS011;36257;46.052;12.540;2022-11-13T10:41:06;6.28;;;4.85;;
40931;SDS011;36257;46.052;12.540;2022-11-13T10:43:47;6.10;;;4.95;;
40931;SDS011;36257;46.052;12.540;2022-11-13T10:46:17;7.97;;;5.55;;
40931;SDS011;36257;46.052;12.540;2022-11-13T10:48:45;6.97;;;3.95;;
40931;SDS011;36257;46.052;12.540;2022-11-13T10:51:30;9.30;;;5.65;;
40931;SDS011;36257;46.052;12.540;2022-11-13T10:53:59;5.72;;;4.18;;
40931;SDS011;36257;46.052;12.540;2022-11-13T10:56:29;5.80;;;4.00;;
40931;SDS011;36257;46.052;12.540;2022-11-13T11:01:41;4.75;;;4.35;;
40931;SDS011;36257;46.052;12.540;2022-11-13T11:04:12;6.03;;;3.85;;
40931;SDS011;36257;46.052;12.540;2022-11-13T11:06:44;9.27;;;4.97;;
40931;SDS011;36257;46.052;12.540;2022-11-13T11:12:28;7.55;;;6.53;;
40931;SDS011;36257;46.052;12.540;2022-11-13T11:22:40;9.05;;;4.32;;
40931;SDS011;36257;46.052;12.540;2022-11-13T11:25:10;4.80;;;4.25;;
40931;SDS011;36257;46.052;12.540;2022-11-13T11:27:43;4.28;;;3.70;;
40931;SDS011;36257;46.052;12.540;2022-11-13T11:35:52;5.00;;;4.50;;
40931;SDS011;36257;46.052;12.540;2022-11-13T11:38:42;6.35;;;4.53;;
40931;SDS011;36257;46.052;12.540;2022-11-13T11:41:37;4.32;;;3.85;;
40931;SDS011;36257;46.052;12.540;2022-11-13T11:46:51;4.78;;;3.70;;
40931;SDS011;36257;46.052;12.540;2022-11-13T11:49:17;5.35;;;4.53;;
40931;SDS011;36257;46.052;12.540;2022-11-13T11:51:52;3.90;;;3.50;;
40931;SDS011;36257;46.052;12.540;2022-11-13T11:54:42;31.13;;;15.85;;
40931;SDS011;36257;46.052;12.540;2022-11-13T12:10:25;5.25;;;3.35;;
40931;SDS011;36257;46.052;12.540;2022-11-13T12:13:27;3.00;;;2.65;;
40931;SDS011;36257;46.052;12.540;2022-11-13T12:21:21;5.70;;;3.35;;
40931;SDS011;36257;46.052;12.540;2022-11-13T12:34:44;4.57;;;4.10;;
40931;SDS011;36257;46.052;12.540;2022-11-13T12:37:37;4.70;;;3.97;;
40931;SDS011;36257;46.052;12.540;2022-11-13T12:40:07;5.72;;;3.70;;
40931;SDS011;36257;46.052;12.540;2022-11-13T12:46:09;3.42;;;3.08;;
40931;SDS011;36257;46.052;12.540;2022-11-13T12:48:37;4.00;;;3.28;;
40931;SDS011;36257;46.052;12.540;2022-11-13T12:51:10;3.50;;;2.83;;
40931;SDS011;36257;46.052;12.540;2022-11-13T13:01:44;4.15;;;3.30;;
40931;SDS011;36257;46.052;12.540;2022-11-13T13:04:45;4.07;;;3.50;;
40931;SDS011;36257;46.052;12.540;2022-11-13T13:12:23;3.90;;;3.20;;
40931;SDS011;36257;46.052;12.540;2022-11-13T13:17:41;6.40;;;5.45;;
40931;SDS011;36257;46.052;12.540;2022-11-13T13:22:35;3.63;;;3.33;;
40931;SDS011;36257;46.052;12.540;2022-11-13T13:30:50;4.78;;;4.28;;
40931;SDS011;36257;46.052;12.540;2022-11-13T13:41:21;4.63;;;3.65;;
40931;SDS011;36257;46.052;12.540;2022-11-13T13:44:03;3.17;;;2.88;;
40931;SDS011;36257;46.052;12.540;2022-11-13T13:46:48;4.28;;;3.70;;
40931;SDS011;36257;46.052;12.540;2022-11-13T13:49:16;8.90;;;6.80;;
40931;SDS011;36257;46.052;12.540;2022-11-13T13:51:45;4.25;;;3.20;;
40931;SDS011;36257;46.052;12.540;2022-11-13T13:54:18;3.13;;;2.83;;
40931;SDS011;36257;46.052;12.540;2022-11-13T13:56:56;3.80;;;3.50;;
40931;SDS011;36257;46.052;12.540;2022-11-13T13:59:29;3.80;;;3.40;;
40931;SDS011;36257;46.052;12.540;2022-11-13T14:01:59;3.97;;;3.20;;
40931;SDS011;36257;46.052;12.540;2022-11-13T14:04:26;9.77;;;3.33;;
40931;SDS011;36257;46.052;12.540;2022-11-13T14:06:57;4.82;;;3.20;;
40931;SDS011;36257;46.052;12.540;2022-11-13T14:09:25;7.70;;;6.75;;
40931;SDS011;36257;46.052;12.540;2022-11-13T14:11:58;3.33;;;2.88;;
40931;SDS011;36257;46.052;12.540;2022-11-13T14:14:29;3.53;;;2.85;;
40931;SDS011;36257;46.052;12.540;2022-11-13T14:16:56;3.50;;;2.72;;
40931;SDS011;36257;46.052;12.540;2022-11-13T14:19:24;5.18;;;3.10;;
40931;SDS011;36257;46.052;12.540;2022-11-13T14:21:51;3.47;;;3.17;;
40931;SDS011;36257;46.052;12.540;2022-11-13T14:24:21;4.35;;;3.20;;
40931;SDS011;36257;46.052;12.540;2022-11-13T14:26:54;3.40;;;2.75;;
40931;SDS011;36257;46.052;12.540;2022-11-13T14:32:00;2.70;;;2.35;;
40931;SDS011;36257;46.052;12.540;2022-11-13T14:34:28;3.88;;;2.55;;
40931;SDS011;36257;46.052;12.540;2022-11-13T14:36:55;2.83;;;2.55;;
40931;SDS011;36257;46.052;12.540;2022-11-13T14:39:30;4.38;;;3.30;;
40931;SDS011;36257;46.052;12.540;2022-11-13T14:41:58;2.50;;;2.30;;
40931;SDS011;36257;46.052;12.540;2022-11-13T14:44:26;3.53;;;2.80;;
40931;SDS011;36257;46.052;12.540;2022-11-13T14:47:03;3.20;;;2.90;;
40931;SDS011;36257;46.052;12.540;2022-11-13T14:49:31;3.33;;;2.85;;
40931;SDS011;36257;46.052;12.540;2022-11-13T14:51:59;4.00;;;3.35;;
40931;SDS011;36257;46.052;12.540;2022-11-13T14:54:35;4.45;;;3.03;;
40931;SDS011;36257;46.052;12.540;2022-11-13T14:57:20;3.73;;;2.83;;
40931;SDS011;36257;46.052;12.540;2022-11-13T14:59:45;4.85;;;3.05;;
40931;SDS011;36257;46.052;12.540;2022-11-13T15:02:11;3.60;;;3.08;;
40931;SDS011;36257;46.052;12.540;2022-11-13T15:04:37;5.40;;;4.57;;
40931;SDS011;36257;46.052;12.540;2022-11-13T15:07:15;4.80;;;4.30;;
40931;SDS011;36257;46.052;12.540;2022-11-13T15:09:44;6.38;;;4.55;;
40931;SDS011;36257;46.052;12.540;2022-11-13T15:12:12;4.68;;;3.90;;
40931;SDS011;36257;46.052;12.540;2022-11-13T15:14:38;4.60;;;4.20;;
40931;SDS011;36257;46.052;12.540;2022-11-13T15:17:06;6.93;;;5.70;;
40931;SDS011;36257;46.052;12.540;2022-11-13T15:19:38;5.47;;;4.95;;
40931;SDS011;36257;46.052;12.540;2022-11-13T15:22:07;5.45;;;4.22;;
40931;SDS011;36257;46.052;12.540;2022-11-13T15:24:39;7.18;;;4.97;;
40931;SDS011;36257;46.052;12.540;2022-11-13T15:27:05;5.47;;;4.97;;
40931;SDS011;36257;46.052;12.540;2022-11-13T15:29:31;7.25;;;5.10;;
40931;SDS011;36257;46.052;12.540;2022-11-13T15:31:57;6.18;;;5.57;;
40931;SDS011;36257;46.052;12.540;2022-11-13T15:34:22;6.90;;;6.30;;
40931;SDS011;36257;46.052;12.540;2022-11-13T15:36:48;7.05;;;6.32;;
40931;SDS011;36257;46.052;12.540;2022-11-13T15:39:14;7.53;;;6.55;;
40931;SDS011;36257;46.052;12.540;2022-11-13T15:41:40;9.02;;;7.80;;
40931;SDS011;36257;46.052;12.540;2022-11-13T15:44:09;9.40;;;8.27;;
40931;SDS011;36257;46.052;12.540;2022-11-13T15:46:39;11.65;;;9.27;;
40931;SDS011;36257;46.052;12.540;2022-11-13T15:49:04;17.88;;;13.48;;
40931;SDS011;36257;46.052;12.540;2022-11-13T15:51:40;24.35;;;21.77;;
40931;SDS011;36257;46.052;12.540;2022-11-13T15:56:54;14.07;;;12.75;;
40931;SDS011;36257;46.052;12.540;2022-11-13T15:59:20;9.30;;;8.30;;
40931;SDS011;36257;46.052;12.540;2022-11-13T16:01:45;7.85;;;6.82;;
40931;SDS011;36257;46.052;12.540;2022-11-13T16:04:11;7.25;;;6.57;;
40931;SDS011;36257;46.052;12.540;2022-11-13T16:06:38;7.50;;;6.80;;
40931;SDS011;36257;46.052;12.540;2022-11-13T16:09:05;7.78;;;7.03;;
40931;SDS011;36257;46.052;12.540;2022-11-13T16:11:31;9.77;;;7.53;;
40931;SDS011;36257;46.052;12.540;2022-11-13T16:13:58;7.35;;;6.30;;
40931;SDS011;36257;46.052;12.540;2022-11-13T16:16:25;7.80;;;6.70;;
40931;SDS011;36257;46.052;12.540;2022-11-13T16:18:54;7.43;;;6.72;;
40931;SDS011;36257;46.052;12.540;2022-11-13T16:21:20;9.10;;;8.18;;
40931;SDS011;36257;46.052;12.540;2022-11-13T16:23:46;9.57;;;8.57;;
40931;SDS011;36257;46.052;12.540;2022-11-13T16:26:22;8.88;;;7.97;;
40931;SDS011;36257;46.052;12.540;2022-11-13T16:28:49;11.07;;;10.00;;
40931;SDS011;36257;46.052;12.540;2022-11-13T16:31:19;28.95;;;21.02;;
40931;SDS011;36257;46.052;12.540;2022-11-13T16:33:45;54.90;;;36.72;;
40931;SDS011;36257;46.052;12.540;2022-11-13T16:36:18;66.90;;;47.78;;
40931;SDS011;36257;46.052;12.540;2022-11-13T16:38:45;39.15;;;27.67;;
40931;SDS011;36257;46.052;12.540;2022-11-13T16:41:12;13.23;;;10.25;;